Time;durP1;ratioP1;P1;durP2;ratioP2;P2;SDS_P1;SDS_P2;PMS_P1;PMS_P2;Temp;Humidity;BMP_temperature;BMP_pressure;BME280_temperature;BME280_humidity;BME280_pressure;Samples;Min_cycle;Max_cycle;Signal;HPM_P1;HPM_P2
2022/03/04 00:00:26;;;;;;;18.08;9.80;;;3.40;99.90;;;;;;5017224;28;20037;-86
2022/03/04 00:02:53;;;;;;;19.27;10.00;;;2.10;99.90;;;;;;5017291;28;20072;-86
2022/03/04 00:05:19;;;;;;;16.48;9.15;;;3.30;99.90;;;;;;5034122;28;20033;-86
2022/03/04 00:07:44;;;;;;;22.00;9.73;;;2.10;99.90;;;;;;5017226;28;20048;-86
2022/03/04 00:10:10;;;;;;;19.48;9.57;;;2.10;99.90;;;;;;5033807;28;20040;-86
2022/03/04 00:12:36;;;;;;;20.03;10.50;;;2.10;99.90;;;;;;5049624;28;21679;-86
2022/03/04 00:15:03;;;;;;;19.03;10.53;;;2.00;99.90;;;;;;5017410;28;20286;-87
2022/03/04 00:17:28;;;;;;;20.83;9.95;;;2.00;99.90;;;;;;5049855;28;20047;-86
2022/03/04 00:19:54;;;;;;;20.08;10.65;;;2.00;99.90;;;;;;5017320;28;20433;-86
2022/03/04 00:22:20;;;;;;;20.13;10.45;;;2.70;99.90;;;;;;5017329;28;20054;-85
2022/03/04 00:24:45;;;;;;;17.40;9.85;;;3.40;99.90;;;;;;5049731;28;20072;-86
2022/03/04 00:27:11;;;;;;;21.27;11.40;;;3.50;99.90;;;;;;5017153;28;20309;-85
2022/03/04 00:29:37;;;;;;;19.98;10.55;;;1.90;99.90;;;;;;5016588;28;20044;-87
2022/03/04 00:32:03;;;;;;;19.70;10.33;;;3.50;99.90;;;;;;5016861;28;20037;-86
2022/03/04 00:34:28;;;;;;;20.35;10.07;;;1.90;99.90;;;;;;5016956;28;20037;-87
2022/03/04 00:36:54;;;;;;;20.53;10.87;;;1.80;99.90;;;;;;5000128;28;20041;-86
2022/03/04 00:39:20;;;;;;;20.73;11.43;;;1.80;99.90;;;;;;4999755;28;20037;-86
2022/03/04 00:41:46;;;;;;;20.65;11.10;;;1.80;99.90;;;;;;4998312;28;20492;-86
2022/03/04 00:44:12;;;;;;;20.35;10.98;;;1.70;99.90;;;;;;5033519;28;20041;-86
2022/03/04 00:46:37;;;;;;;18.08;10.48;;;1.60;99.90;;;;;;5015899;28;20063;-85
2022/03/04 00:49:04;;;;;;;20.58;10.90;;;3.10;99.90;;;;;;5049804;28;20044;-86
2022/03/04 00:51:30;;;;;;;19.85;10.48;;;2.10;99.90;;;;;;5032445;28;20527;-85
2022/03/04 00:53:56;;;;;;;21.45;11.23;;;1.60;99.90;;;;;;5031995;28;20128;-87
2022/03/04 00:56:42;;;;;;;19.50;10.93;;;1.60;99.90;;;;;;5032364;28;20496;-87
2022/03/04 00:59:08;;;;;;;21.92;11.40;;;1.60;99.90;;;;;;5016995;28;20480;-87
2022/03/04 01:01:34;;;;;;;20.52;10.80;;;3.20;99.90;;;;;;5016084;28;20040;-87
2022/03/04 01:04:00;;;;;;;20.25;11.05;;;2.60;99.90;;;;;;5033020;28;20040;-87
2022/03/04 01:06:25;;;;;;;21.70;11.40;;;2.00;99.90;;;;;;5016446;28;20489;-86
2022/03/04 01:08:51;;;;;;;21.33;11.43;;;3.10;99.90;;;;;;5049112;28;20043;-86
2022/03/04 01:11:17;;;;;;;22.70;12.17;;;3.20;99.90;;;;;;5014691;28;20038;-87
2022/03/04 01:13:42;;;;;;;23.92;11.82;;;1.50;99.90;;;;;;5015873;28;20327;-87
2022/03/04 01:16:08;;;;;;;25.17;12.63;;;3.20;99.90;;;;;;5016480;28;20485;-86
2022/03/04 01:18:34;;;;;;;25.77;12.77;;;1.40;99.90;;;;;;5046363;28;20314;-86
2022/03/04 01:21:00;;;;;;;22.92;12.23;;;1.40;99.90;;;;;;5016320;28;20477;-87
2022/03/04 01:23:25;;;;;;;25.77;13.50;;;3.00;99.90;;;;;;5016417;28;20033;-87
2022/03/04 01:25:52;;;;;;;24.17;12.25;;;2.80;99.90;;;;;;4998263;28;20041;-87
2022/03/04 01:28:20;;;;;;;29.50;13.90;;;1.40;99.90;;;;;;5015770;28;20116;-87
2022/03/04 01:30:46;;;;;;;25.77;12.90;;;3.00;99.90;;;;;;5015827;28;20032;-87
2022/03/04 01:33:12;;;;;;;;;;;3.00;99.90;;;;;;5033309;28;20125;-86
2022/03/04 01:35:38;;;;;;;26.02;13.32;;;2.80;99.90;;;;;;5032363;28;20007;-86
2022/03/04 01:38:04;;;;;;;25.02;12.98;;;1.30;99.90;;;;;;5048985;28;20037;-85
2022/03/04 01:40:30;;;;;;;27.52;13.93;;;3.10;99.90;;;;;;5049110;28;20116;-86
2022/03/04 01:42:56;;;;;;;26.17;13.95;;;3.00;99.90;;;;;;5015180;28;20044;-86
2022/03/04 01:45:22;;;;;;;23.52;13.30;;;1.10;99.90;;;;;;5048042;28;20408;-86
2022/03/04 01:47:48;;;;;;;32.17;14.38;;;1.10;99.90;;;;;;5030945;28;20121;-86
2022/03/04 01:50:14;;;;;;;26.48;14.77;;;1.00;99.90;;;;;;5031412;28;20883;-87
2022/03/04 01:52:40;;;;;;;27.25;14.52;;;0.90;99.90;;;;;;5035750;28;20120;-87
2022/03/04 01:55:08;;;;;;;27.80;15.50;;;2.70;99.90;;;;;;5036366;28;20048;-87
2022/03/04 01:57:34;;;;;;;28.17;15.85;;;0.80;99.90;;;;;;5019997;28;20504;-87
2022/03/04 02:00:00;;;;;;;;;;;0.80;99.90;;;;;;5036191;28;20044;-87
2022/03/04 02:02:26;;;;;;;31.75;15.98;;;2.70;99.90;;;;;;5019656;28;20299;-87
2022/03/04 02:04:52;;;;;;;30.35;15.43;;;0.80;99.90;;;;;;5052318;28;20415;-87
2022/03/04 02:07:18;;;;;;;30.40;16.30;;;0.70;99.90;;;;;;5019603;28;20110;-85
2022/03/04 02:09:44;;;;;;;28.02;15.70;;;1.80;99.90;;;;;;5052279;28;20072;-86
2022/03/04 02:12:09;;;;;;;34.05;16.83;;;0.70;99.90;;;;;;5019382;28;20068;-86
2022/03/04 02:14:35;;;;;;;31.17;17.15;;;0.90;99.90;;;;;;5019348;28;20068;-86
2022/03/04 02:17:01;;;;;;;32.03;16.35;;;0.60;99.90;;;;;;5019425;28;20044;-86
2022/03/04 02:19:27;;;;;;;32.63;16.52;;;0.60;99.90;;;;;;5052423;28;20064;-86
2022/03/04 02:21:56;;;;;;;34.47;16.30;;;0.50;99.90;;;;;;5018230;28;20170;-87
2022/03/04 02:24:24;;;;;;;33.08;15.75;;;0.50;99.90;;;;;;5052570;28;20100;-87
2022/03/04 02:26:55;;;;;;;32.90;16.35;;;2.30;99.90;;;;;;5035279;28;20033;-86
2022/03/04 02:29:22;;;;;;;32.35;16.92;;;0.50;99.90;;;;;;5052240;28;20029;-87
2022/03/04 02:31:48;;;;;;;;;;;0.40;99.90;;;;;;5052138;28;20076;-87
2022/03/04 02:34:14;;;;;;;36.22;17.75;;;0.40;99.90;;;;;;5052187;28;19921;-86
2022/03/04 02:36:40;;;;;;;33.88;17.42;;;0.60;99.90;;;;;;5035025;28;20080;-86
2022/03/04 02:39:07;;;;;;;33.58;17.88;;;0.40;99.90;;;;;;5019105;28;20056;-87
2022/03/04 02:41:36;;;;;;;;;;;0.30;99.90;;;;;;5036167;28;20388;-87
2022/03/04 02:44:07;;;;;;;34.90;16.48;;;2.30;99.90;;;;;;5035565;28;20597;-87
2022/03/04 02:46:34;;;;;;;36.13;17.98;;;1.40;99.90;;;;;;5051752;28;20524;-87
2022/03/04 02:48:59;;;;;;;37.15;17.35;;;0.30;99.90;;;;;;5018603;28;20079;-87
2022/03/04 02:51:25;;;;;;;38.00;18.58;;;0.20;99.90;;;;;;5018511;28;20036;-87
2022/03/04 02:53:51;;;;;;;37.25;18.60;;;0.20;99.90;;;;;;5034858;28;20032;-87
2022/03/04 02:56:17;;;;;;;38.88;18.70;;;0.20;99.90;;;;;;5051603;28;20090;-87
2022/03/04 02:58:43;;;;;;;;;;;0.20;99.90;;;;;;5017140;28;20033;-87
2022/03/04 03:01:09;;;;;;;35.78;17.42;;;2.00;99.90;;;;;;5035149;28;19917;-87
2022/03/04 03:03:35;;;;;;;37.53;17.33;;;0.20;99.90;;;;;;5034673;28;20496;-87
2022/03/04 03:06:00;;;;;;;38.25;18.05;;;0.10;99.90;;;;;;5017681;28;20048;-87
2022/03/04 03:08:28;;;;;;;38.90;18.58;;;0.20;99.90;;;;;;5034851;28;20043;-87
2022/03/04 03:10:54;;;;;;;38.20;18.45;;;0.10;99.90;;;;;;5051348;28;20404;-87
2022/03/04 03:13:20;;;;;;;;;;;0.10;99.90;;;;;;5017277;28;20040;-88
2022/03/04 03:15:46;;;;;;;34.63;17.17;;;0.10;99.90;;;;;;5034221;28;19927;-88
2022/03/04 03:18:12;;;;;;;36.35;17.10;;;0.10;99.90;;;;;;5018562;28;20500;-87
2022/03/04 03:20:38;;;;;;;36.55;18.55;;;0.10;99.90;;;;;;5051491;28;20037;-87
2022/03/04 03:23:03;;;;;;;37.75;18.05;;;0.10;99.90;;;;;;5051118;28;20037;-87
2022/03/04 03:25:29;;;;;;;37.28;17.52;;;0.10;99.90;;;;;;5034683;28;20041;-87
2022/03/04 03:27:55;;;;;;;32.58;17.38;;;2.00;99.90;;;;;;5034161;28;20048;-87
2022/03/04 03:30:21;;;;;;;34.63;18.15;;;1.60;99.90;;;;;;5015631;28;20071;-87
2022/03/04 03:32:47;;;;;;;36.40;18.65;;;0.00;99.90;;;;;;5017576;28;20060;-87
2022/03/04 03:35:13;;;;;;;36.30;17.42;;;1.20;99.90;;;;;;5000300;28;20073;-87
2022/03/04 03:37:39;;;;;;;33.78;17.73;;;0.00;99.90;;;;;;5018070;28;20064;-87
2022/03/04 03:40:07;;;;;;;37.72;18.77;;;1.00;99.90;;;;;;5033311;28;20040;-87
2022/03/04 03:42:33;;;;;;;37.38;18.15;;;0.00;99.90;;;;;;5050264;28;20043;-87
2022/03/04 03:44:59;;;;;;;38.47;17.85;;;0.00;99.90;;;;;;5017412;28;20040;-87
2022/03/04 03:47:25;;;;;;;38.75;17.98;;;0.00;99.90;;;;;;5033641;28;20098;-86
2022/03/04 03:49:51;;;;;;;36.63;18.55;;;1.70;99.90;;;;;;5034094;28;20511;-86
2022/03/04 03:52:17;;;;;;;37.05;17.65;;;1.90;99.90;;;;;;5033896;28;20100;-86
2022/03/04 03:54:43;;;;;;;38.17;18.30;;;-0.10;99.90;;;;;;5033895;28;20119;-87
2022/03/04 03:57:10;;;;;;;34.28;18.00;;;0.00;99.90;;;;;;5017177;28;20465;-86
2022/03/04 03:59:36;;;;;;;37.90;18.02;;;1.80;99.90;;;;;;5018137;28;20397;-86
2022/03/04 04:02:03;;;;;;;40.28;19.33;;;-0.10;99.90;;;;;;5033872;28;20492;-86
2022/03/04 04:04:34;;;;;;;35.45;18.15;;;-0.10;99.90;;;;;;5033623;28;20041;-86
2022/03/04 04:07:08;;;;;;;39.17;18.73;;;-0.10;99.90;;;;;;5000789;28;20070;-86
2022/03/04 04:09:34;;;;;;;38.78;18.42;;;-0.10;99.90;;;;;;5050329;28;20029;-86
2022/03/04 04:12:00;;;;;;;37.25;19.52;;;-0.10;99.90;;;;;;5033535;28;20388;-85
2022/03/04 04:14:27;;;;;;;39.72;19.25;;;-0.10;99.90;;;;;;5050005;28;20037;-85
2022/03/04 04:16:54;;;;;;;42.20;21.38;;;-0.20;99.90;;;;;;5049840;28;20037;-86
2022/03/04 04:19:20;;;;;;;47.63;21.35;;;-0.20;99.90;;;;;;5033661;28;20507;-86
2022/03/04 04:21:46;;;;;;;39.97;19.00;;;-0.30;99.90;;;;;;5050020;28;20064;-87
2022/03/04 04:24:11;;;;;;;45.13;20.27;;;-0.20;99.90;;;;;;5033387;28;20076;-87
2022/03/04 04:26:37;;;;;;;49.85;20.88;;;-0.20;99.90;;;;;;5033621;28;20403;-87
2022/03/04 04:29:03;;;;;;;41.72;20.55;;;-0.20;99.90;;;;;;5016529;28;20037;-87
2022/03/04 04:31:31;;;;;;;43.83;21.10;;;-0.30;99.90;;;;;;5033543;28;20091;-87
2022/03/04 04:33:57;;;;;;;47.22;20.70;;;-0.30;99.90;;;;;;5032830;28;20079;-87
2022/03/04 04:36:23;;;;;;;46.83;19.98;;;-0.40;99.90;;;;;;5030977;28;20492;-87
2022/03/04 04:38:49;;;;;;;51.38;22.33;;;-0.40;99.90;;;;;;5049725;28;20067;-86
2022/03/04 04:41:15;;;;;;;54.28;23.75;;;-0.40;99.90;;;;;;5033328;28;20061;-87
2022/03/04 04:43:41;;;;;;;47.30;21.65;;;-0.40;99.90;;;;;;5016930;28;20067;-87
2022/03/04 04:46:07;;;;;;;50.30;22.55;;;-0.40;99.90;;;;;;5032712;28;20052;-87
2022/03/04 04:48:33;;;;;;;55.45;22.50;;;-0.40;99.90;;;;;;5033199;28;20443;-87
2022/03/04 04:50:59;;;;;;;50.53;22.20;;;-0.40;99.90;;;;;;5032640;28;20071;-87
2022/03/04 04:53:28;;;;;;;51.90;22.27;;;0.70;99.90;;;;;;5033181;28;20025;-87
2022/03/04 04:55:54;;;;;;;45.92;21.10;;;-0.40;99.90;;;;;;5016624;28;20043;-87
2022/03/04 04:58:20;;;;;;;44.22;20.77;;;-0.40;99.90;;;;;;5049517;28;20033;-87
2022/03/04 05:00:50;;;;;;;43.20;19.92;;;1.40;99.90;;;;;;5032151;28;20043;-87
2022/03/04 05:03:17;;;;;;;45.38;20.25;;;-0.40;99.90;;;;;;5015849;28;20128;-86
2022/03/04 05:05:42;;;;;;;;;;;1.20;99.90;;;;;;5033432;28;20148;-87
2022/03/04 05:08:08;;;;;;;46.20;19.73;;;0.70;99.90;;;;;;5016059;28;19952;-86
2022/03/04 05:10:34;;;;;;;41.33;19.60;;;-0.30;99.90;;;;;;5016301;28;20113;-86
2022/03/04 05:13:00;;;;;;;50.30;22.10;;;-0.40;99.90;;;;;;5015991;28;20040;-85
2022/03/04 05:15:25;;;;;;;47.83;21.13;;;-0.40;99.90;;;;;;5016421;28;20090;-86
2022/03/04 05:17:51;;;;;;;46.33;21.67;;;-0.40;99.90;;;;;;5016064;28;20041;-85
2022/03/04 05:20:18;;;;;;;47.78;20.98;;;1.60;99.90;;;;;;5032598;28;20272;-87
2022/03/04 05:22:44;;;;;;;43.85;21.17;;;-0.50;99.90;;;;;;5017023;28;20064;-89
2022/03/04 05:25:10;;;;;;;48.95;20.63;;;-0.70;99.90;;;;;;5034473;28;20079;-90
2022/03/04 05:27:36;;;;;;;;;;;0.90;99.90;;;;;;5037540;28;20033;-88
2022/03/04 05:30:04;;;;;;;44.90;19.87;;;-0.50;99.90;;;;;;5037003;28;19956;-88
2022/03/04 05:32:29;;;;;;;47.65;20.13;;;-0.40;99.90;;;;;;5020328;28;20052;-88
2022/03/04 05:34:55;;;;;;;43.25;19.60;;;0.60;99.90;;;;;;5002502;28;20116;-87
2022/03/04 05:37:21;;;;;;;42.00;19.10;;;-0.40;99.90;;;;;;5020345;28;20033;-88
2022/03/04 05:39:47;;;;;;;46.53;20.25;;;-0.20;99.90;;;;;;5053283;28;20025;-85
2022/03/04 05:42:13;;;;;;;46.72;20.63;;;-0.40;99.90;;;;;;5020159;28;20029;-88
2022/03/04 05:44:38;;;;;;;44.63;20.48;;;-0.40;99.90;;;;;;5002681;28;20033;-86
2022/03/04 05:47:04;;;;;;;44.63;20.08;;;-0.50;99.90;;;;;;5037199;28;20049;-90
2022/03/04 05:49:30;;;;;;;50.90;21.23;;;-0.40;99.90;;;;;;5054387;28;20041;-90
2022/03/04 05:51:56;;;;;;;46.30;20.30;;;-0.50;99.90;;;;;;5038234;28;20048;-89
2022/03/04 05:54:21;;;;;;;45.75;20.38;;;-0.50;99.90;;;;;;5054375;28;20074;-88
2022/03/04 05:56:47;;;;;;;45.92;20.45;;;-0.50;99.90;;;;;;5021661;28;20492;-88
2022/03/04 05:59:13;;;;;;;49.67;22.00;;;1.00;99.90;;;;;;5035770;28;20033;-88
2022/03/04 06:01:38;;;;;;;47.13;21.20;;;-0.50;99.90;;;;;;5036416;28;20405;-88
2022/03/04 06:04:04;;;;;;;41.83;20.73;;;1.10;99.90;;;;;;5052966;28;20068;-88
2022/03/04 06:06:30;;;;;;;46.33;20.92;;;-0.40;99.90;;;;;;5036187;28;20098;-87
2022/03/04 06:08:56;;;;;;;50.17;21.92;;;-0.40;99.90;;;;;;5019297;28;20037;-87
2022/03/04 06:11:21;;;;;;;45.63;21.65;;;-0.40;99.90;;;;;;5019630;28;20407;-88
2022/03/04 06:13:47;;;;;;;48.42;22.80;;;0.50;99.90;;;;;;5019670;28;20033;-88
2022/03/04 06:16:13;;;;;;;45.97;20.88;;;-0.50;99.90;;;;;;5036196;28;20075;-88
2022/03/04 06:18:39;;;;;;;45.37;20.63;;;0.40;99.90;;;;;;5002383;28;20037;-87
2022/03/04 06:21:05;;;;;;;43.55;20.77;;;-0.40;99.90;;;;;;5019332;28;20272;-87
2022/03/04 06:23:31;;;;;;;49.33;21.60;;;1.20;99.90;;;;;;5052774;28;20040;-88
2022/03/04 06:25:58;;;;;;;47.00;20.95;;;-0.40;99.90;;;;;;5035638;28;20037;-87
2022/03/04 06:28:25;;;;;;;49.20;22.38;;;-0.40;99.90;;;;;;5033589;28;20045;-88
2022/03/04 06:30:51;;;;;;;47.85;21.58;;;-0.20;99.90;;;;;;5036110;28;20091;-88
2022/03/04 06:33:32;;;;;;;44.30;21.27;;;-0.40;99.90;;;;;;5017811;28;20041;-89
2022/03/04 06:36:13;;;;;;;43.08;20.30;;;-0.40;99.90;;;;;;5051177;28;20032;-85
2022/03/04 06:38:41;;;;;;;44.50;21.42;;;-0.30;99.90;;;;;;5034809;28;20503;-87
2022/03/04 06:41:08;;;;;;;41.50;20.25;;;-0.40;99.90;;;;;;5034438;28;20029;-86
2022/03/04 06:43:34;;;;;;;43.05;21.23;;;-0.40;99.90;;;;;;5051556;28;20037;-87
2022/03/04 06:46:02;;;;;;;47.05;21.85;;;-0.40;99.90;;;;;;5018569;28;20036;-86
2022/03/04 06:48:28;;;;;;;45.90;22.25;;;-0.30;99.90;;;;;;5033213;28;20064;-86
2022/03/04 06:50:54;;;;;;;41.47;21.13;;;-0.30;99.90;;;;;;5018818;28;20094;-88
2022/03/04 06:53:20;;;;;;;42.80;20.27;;;-0.30;99.90;;;;;;5034909;28;20037;-87
2022/03/04 06:55:46;;;;;;;;;;;-0.20;99.90;;;;;;5033768;28;20082;-87
2022/03/04 06:58:13;;;;;;;40.97;19.55;;;1.10;99.90;;;;;;5035191;28;19921;-86
2022/03/04 07:00:39;;;;;;;44.05;21.15;;;0.40;99.90;;;;;;5035317;28;20039;-88
2022/03/04 07:03:05;;;;;;;43.95;21.10;;;-0.20;99.90;;;;;;5034853;28;20045;-88
2022/03/04 07:05:31;;;;;;;40.25;20.73;;;-0.20;99.90;;;;;;5051835;28;20072;-87
2022/03/04 07:07:57;;;;;;;40.55;21.88;;;-0.20;99.90;;;;;;5035316;28;20041;-86
2022/03/04 07:10:24;;;;;;;44.30;21.73;;;-0.20;99.90;;;;;;5051520;28;20039;-85
2022/03/04 07:12:50;;;;;;;44.38;21.25;;;-0.20;99.90;;;;;;5035042;28;20515;-87
2022/03/04 07:15:17;;;;;;;;;;;-0.10;99.90;;;;;;5051770;28;20029;-86
2022/03/04 07:17:43;;;;;;;42.45;20.50;;;-0.10;99.90;;;;;;5035087;28;19923;-87
2022/03/04 07:20:09;;;;;;;43.78;21.77;;;-0.10;99.90;;;;;;5018099;28;20033;-87
2022/03/04 07:22:35;;;;;;;46.13;22.23;;;0.00;99.90;;;;;;5034805;28;20132;-87
2022/03/04 07:25:06;;;;;;;44.63;22.45;;;1.80;99.90;;;;;;5034449;28;20090;-87
2022/03/04 07:27:34;;;;;;;42.70;21.63;;;0.00;99.90;;;;;;5018437;28;20040;-87
2022/03/04 07:30:00;;;;;;;41.30;21.33;;;0.00;99.90;;;;;;5034383;28;20041;-87
2022/03/04 07:32:26;;;;;;;;;;;0.60;99.90;;;;;;5034889;28;20048;-87
2022/03/04 07:34:51;;;;;;;41.95;19.42;;;0.30;99.90;;;;;;5034960;28;19927;-90
2022/03/04 07:37:17;;;;;;;40.33;19.92;;;2.00;99.90;;;;;;5003016;28;20033;-90
2022/03/04 07:39:43;;;;;;;40.55;20.17;;;0.10;99.90;;;;;;5002096;28;20039;-87
2022/03/04 07:42:09;;;;;;;44.95;20.58;;;1.10;99.90;;;;;;5035105;28;20040;-86
2022/03/04 07:44:34;;;;;;;39.85;20.38;;;1.60;99.90;;;;;;5018372;28;20029;-87
2022/03/04 07:47:00;;;;;;;37.80;19.92;;;1.60;99.90;;;;;;5034442;28;20056;-86
2022/03/04 07:49:26;;;;;;;44.00;21.65;;;0.20;99.90;;;;;;5018301;28;20493;-90
2022/03/04 07:51:51;;;;;;;38.03;18.88;;;0.20;99.90;;;;;;5018399;28;20037;-90
2022/03/04 07:54:18;;;;;;;37.97;19.40;;;0.20;99.90;;;;;;5002125;28;20500;-90
2022/03/04 07:56:44;;;;;;;;;;;0.10;99.90;;;;;;5019255;28;20317;-90
2022/03/04 07:59:10;;;;;;;40.10;19.67;;;0.70;99.90;;;;;;5051419;28;19917;-89
2022/03/04 08:01:36;;;;;;;36.05;19.20;;;0.20;99.90;;;;;;5034817;28;20488;-90
2022/03/04 08:04:01;;;;;;;33.80;17.80;;;1.90;99.90;;;;;;5001345;28;20044;-90
2022/03/04 08:06:27;;;;;;;35.58;17.67;;;0.40;99.90;;;;;;5034428;28;20033;-89
2022/03/04 08:08:53;;;;;;;34.13;17.40;;;1.40;99.90;;;;;;5035047;28;20052;-90
2022/03/04 08:11:18;;;;;;;34.77;18.00;;;0.30;99.90;;;;;;5034306;28;20048;-89
2022/03/04 08:13:44;;;;;;;32.37;17.87;;;0.30;99.90;;;;;;5034288;28;20371;-89
2022/03/04 08:16:10;;;;;;;32.70;16.42;;;1.00;99.90;;;;;;5034163;28;20279;-89
2022/03/04 08:18:36;;;;;;;31.92;16.83;;;1.40;99.90;;;;;;5051283;28;20072;-89
2022/03/04 08:21:03;;;;;;;33.83;17.95;;;0.40;99.90;;;;;;5023079;28;20047;-89
2022/03/04 08:23:29;;;;;;;31.50;17.08;;;2.30;99.90;;;;;;5018236;28;20427;-90
2022/03/04 08:25:57;;;;;;;30.00;16.15;;;0.60;99.90;;;;;;5018360;28;20488;-90
2022/03/04 08:28:23;;;;;;;32.05;15.95;;;0.70;99.90;;;;;;5032024;28;20040;-89
2022/03/04 08:30:49;;;;;;;30.70;16.20;;;1.30;99.90;;;;;;5018408;28;20389;-90
2022/03/04 08:33:15;;;;;;;25.98;15.23;;;2.10;99.90;;;;;;5001365;28;20056;-90
2022/03/04 08:35:41;;;;;;;;;;;0.90;99.90;;;;;;5018134;28;20033;-89
2022/03/04 08:38:07;;;;;;;30.40;15.50;;;2.30;99.90;;;;;;5017490;28;20272;-90
2022/03/04 08:40:32;;;;;;;31.33;15.32;;;1.10;99.90;;;;;;5034264;28;20099;-89
2022/03/04 08:42:58;;;;;;;30.87;15.03;;;1.10;99.90;;;;;;5034066;28;20033;-89
2022/03/04 08:45:25;;;;;;;27.48;15.27;;;1.10;99.90;;;;;;5017421;28;20052;-89
2022/03/04 08:47:51;;;;;;;28.38;15.43;;;2.10;99.90;;;;;;5034079;28;20060;-89
2022/03/04 08:50:17;;;;;;;28.08;15.40;;;2.20;99.90;;;;;;5017499;28;20043;-89
2022/03/04 08:52:43;;;;;;;29.92;15.30;;;2.20;99.90;;;;;;5033437;28;20040;-89
2022/03/04 08:55:14;;;;;;;28.48;15.65;;;2.70;99.90;;;;;;5033133;28;20044;-89
2022/03/04 08:57:45;;;;;;;27.52;14.60;;;0.90;99.90;;;;;;5033946;28;20037;-89
2022/03/04 09:00:14;;;;;;;28.73;15.38;;;1.80;99.90;;;;;;5032395;28;20112;-89
2022/03/04 09:02:40;;;;;;;24.73;14.40;;;0.90;99.90;;;;;;5015804;28;20032;-89
2022/03/04 09:05:07;;;;;;;29.02;15.15;;;1.00;99.90;;;;;;5034105;28;20119;-89
2022/03/04 09:07:32;;;;;;;;;;;1.10;99.90;;;;;;5018617;28;20086;-90
2022/03/04 09:09:58;;;;;;;25.38;14.73;;;0.90;99.90;;;;;;5034266;28;19991;-89
2022/03/04 09:12:24;;;;;;;27.92;14.80;;;2.00;99.90;;;;;;5034476;28;20037;-88
2022/03/04 09:14:50;;;;;;;28.42;15.65;;;2.00;99.90;;;;;;5018518;28;20028;-88
2022/03/04 09:17:16;;;;;;;26.13;14.57;;;1.20;99.90;;;;;;5000231;28;20400;-91
2022/03/04 09:19:42;;;;;;;29.77;15.48;;;1.20;99.90;;;;;;5001900;28;20048;-88
2022/03/04 09:22:08;;;;;;;25.42;14.63;;;2.60;99.90;;;;;;5018191;28;20029;-91
2022/03/04 09:24:34;;;;;;;26.98;14.55;;;1.30;99.90;;;;;;5018304;28;20110;-91
2022/03/04 09:26:59;;;;;;;27.67;15.13;;;1.80;99.90;;;;;;5034690;28;20041;-94
2022/03/04 09:29:25;;;;;;;25.83;14.93;;;1.40;99.90;;;;;;5017914;28;20040;-91
2022/03/04 09:31:51;;;;;;;26.20;14.57;;;1.60;99.90;;;;;;5033967;28;20041;-87
2022/03/04 09:34:17;;;;;;;24.42;14.80;;;1.90;99.90;;;;;;4999654;28;20164;-91
2022/03/04 09:36:43;;;;;;;24.45;13.43;;;2.00;99.90;;;;;;5048057;28;20033;-91
2022/03/04 09:39:09;;;;;;;24.42;14.18;;;2.30;99.90;;;;;;5017242;28;20173;-92
2022/03/04 09:41:35;;;;;;;26.50;14.45;;;3.80;99.90;;;;;;5033983;28;20130;-91
2022/03/04 09:44:02;;;;;;;24.60;13.60;;;2.40;99.90;;;;;;5016243;28;20512;-88
2022/03/04 09:46:28;;;;;;;25.90;12.65;;;2.30;99.90;;;;;;5049799;28;20075;-91
2022/03/04 09:48:54;;;;;;;22.48;12.82;;;2.80;99.90;;;;;;5017995;28;20036;-92
2022/03/04 09:51:21;;;;;;;21.85;12.88;;;4.60;99.90;;;;;;5017279;28;20037;-91
2022/03/04 09:53:47;;;;;;;22.00;11.52;;;5.20;99.90;;;;;;5034245;28;20159;-91
2022/03/04 09:56:13;;;;;;;20.85;12.02;;;6.20;99.90;;;;;;4999085;28;20492;-90
2022/03/04 09:58:39;;;;;;;19.48;11.15;;;6.60;99.90;;;;;;5018128;28;20037;-90
2022/03/04 10:01:10;;;;;;;19.17;11.25;;;6.20;99.90;;;;;;5018638;28;20070;-91
2022/03/04 10:03:39;;;;;;;19.15;11.70;;;6.60;99.90;;;;;;5033485;28;20128;-89
2022/03/04 10:06:05;;;;;;;19.23;11.77;;;7.30;99.90;;;;;;5033694;28;20044;-90
2022/03/04 10:08:37;;;;;;;21.30;11.50;;;7.10;99.90;;;;;;5016914;28;20170;-91
2022/03/04 10:11:03;;;;;;;17.50;11.13;;;7.50;99.90;;;;;;5034922;28;20043;-91
2022/03/04 10:13:44;;;;;;;17.35;10.93;;;8.20;99.90;;;;;;5053770;28;20037;-89
2022/03/04 10:16:11;;;;;;;16.65;10.93;;;8.80;99.90;;;;;;5037791;28;20072;-91
2022/03/04 10:18:37;;;;;;;19.52;11.82;;;8.90;99.90;;;;;;5021647;28;20396;-92
2022/03/04 10:21:03;;;;;;;16.90;10.57;;;9.10;99.90;;;;;;5004804;28;20037;-92
2022/03/04 10:23:28;;;;;;;15.82;10.82;;;8.80;99.90;;;;;;5022630;28;20041;-93
2022/03/04 10:25:56;;;;;;;15.90;11.18;;;8.10;99.90;;;;;;5023923;28;20047;-94
2022/03/04 10:28:25;;;;;;;16.67;10.60;;;8.60;99.90;;;;;;5021263;28;20040;-92
2022/03/04 10:30:53;;;;;;;16.67;10.20;;;9.20;99.90;;;;;;5038234;28;20047;-92
2022/03/04 10:33:21;;;;;;;15.93;10.55;;;9.00;99.90;;;;;;5032578;28;20045;-92
2022/03/04 10:36:04;;;;;;;15.52;10.15;;;9.70;99.90;;;;;;5037023;28;20120;-94
2022/03/04 10:38:30;;;;;;;16.35;10.95;;;9.90;99.90;;;;;;5026906;28;20040;-91
2022/03/04 10:40:56;;;;;;;16.40;10.23;;;10.00;99.90;;;;;;5052656;28;20427;-90
2022/03/04 10:43:30;;;;;;;14.70;9.13;;;10.30;99.90;;;;;;5036185;28;20646;-90
2022/03/04 10:46:14;;;;;;;15.40;10.30;;;11.20;99.90;;;;;;5036538;28;20719;-91
2022/03/04 10:48:50;;;;;;;14.68;10.05;;;11.30;99.90;;;;;;5034174;28;20063;-90
2022/03/04 10:51:39;;;;;;;13.93;9.82;;;12.00;99.90;;;;;;5051820;28;20049;-90
2022/03/04 10:54:16;;;;;;;15.13;10.10;;;11.50;99.90;;;;;;5052421;28;20124;-90
2022/03/04 10:56:52;;;;;;;;;;;11.60;99.90;;;;;;5051869;28;20123;-90
2022/03/04 10:59:19;;;;;;;15.23;9.68;;;12.00;99.90;;;;;;5051779;28;20269;-90
2022/03/04 11:01:49;;;;;;;13.65;9.32;;;12.50;99.90;;;;;;5052056;28;20039;-90
2022/03/04 11:04:19;;;;;;;13.45;9.75;;;12.70;99.90;;;;;;5052498;28;20040;-90
2022/03/04 11:06:46;;;;;;;15.20;10.07;;;11.70;99.90;;;;;;5035541;28;20041;-89
2022/03/04 11:09:24;;;;;;;14.35;9.50;;;11.30;99.90;;;;;;5051819;28;20072;-88
2022/03/04 11:11:52;;;;;;;12.68;9.45;;;11.90;99.90;;;;;;5035437;28;20043;-89
2022/03/04 11:14:20;;;;;;;12.98;9.07;;;11.70;99.90;;;;;;5035328;28;20033;-89
2022/03/04 11:16:48;;;;;;;14.52;10.05;;;11.90;99.90;;;;;;5051904;28;20036;-88
2022/03/04 11:19:15;;;;;;;11.85;8.80;;;12.00;99.90;;;;;;5051778;28;20056;-88
2022/03/04 11:21:41;;;;;;;15.90;9.82;;;12.10;99.90;;;;;;5034505;28;20443;-87
2022/03/04 11:24:07;;;;;;;13.70;9.55;;;12.10;99.90;;;;;;5034567;28;20072;-90
2022/03/04 11:26:34;;;;;;;15.32;9.63;;;12.30;99.90;;;;;;5034794;28;20037;-89
2022/03/04 11:29:02;;;;;;;14.90;9.95;;;12.50;99.90;;;;;;5049666;28;20040;-90
2022/03/04 11:31:29;;;;;;;14.18;9.35;;;13.10;99.50;;;;;;5034845;28;20037;-89
2022/03/04 11:34:02;;;;;;;14.38;9.77;;;13.00;99.50;;;;;;5034533;28;20053;-89
2022/03/04 11:36:29;;;;;;;12.45;9.02;;;13.30;99.20;;;;;;5051505;28;20162;-88
2022/03/04 11:38:58;;;;;;;13.25;8.65;;;12.80;99.00;;;;;;5035474;28;20466;-90
2022/03/04 11:41:26;;;;;;;13.98;8.98;;;13.10;99.90;;;;;;5049131;28;20116;-85
2022/03/04 11:43:55;;;;;;;12.80;8.73;;;13.40;99.10;;;;;;5051575;28;20070;-91
2022/03/04 11:46:42;;;;;;;12.52;8.65;;;13.20;98.30;;;;;;5051256;28;20060;-87
2022/03/04 11:49:28;;;;;;;12.57;8.60;;;13.10;97.30;;;;;;5050189;28;20037;-90
2022/03/04 11:52:10;;;;;;;14.35;9.40;;;13.10;98.00;;;;;;5051016;28;20171;-89
2022/03/04 11:54:36;;;;;;;13.50;9.18;;;13.00;99.20;;;;;;5034100;28;20049;-90
2022/03/04 11:57:14;;;;;;;13.75;8.98;;;13.80;98.60;;;;;;5051607;28;20076;-90
2022/03/04 11:59:40;;;;;;;13.40;9.10;;;14.10;97.10;;;;;;5048932;28;20029;-88
2022/03/04 12:02:05;;;;;;;12.35;9.07;;;13.70;96.30;;;;;;5018075;28;20037;-89
2022/03/04 12:04:35;;;;;;;15.30;9.52;;;13.70;96.90;;;;;;5051446;28;20492;-93
2022/03/04 12:07:10;;;;;;;13.32;9.30;;;14.20;95.70;;;;;;5018694;28;20090;-90
2022/03/04 12:09:35;;;;;;;13.32;9.07;;;13.60;97.50;;;;;;5017690;28;20048;-88
2022/03/04 12:12:24;;;;;;;13.75;9.25;;;14.70;96.60;;;;;;5035493;28;20048;-87
2022/03/04 12:15:32;;;;;;;15.30;9.93;;;14.70;94.20;;;;;;5051390;28;20408;-93
2022/03/04 12:18:07;;;;;;;13.02;9.27;;;15.00;94.40;;;;;;5042576;28;20408;-86
2022/03/04 12:20:58;;;;;;;14.38;9.73;;;15.30;94.80;;;;;;5048943;28;20040;-87
2022/03/04 12:23:28;;;;;;;13.73;10.10;;;15.00;93.60;;;;;;5026168;28;20091;-90
2022/03/04 12:25:54;;;;;;;14.63;10.48;;;14.20;94.20;;;;;;5034073;28;20089;-91
2022/03/04 12:28:20;;;;;;;15.70;10.57;;;14.10;95.60;;;;;;5034244;28;20522;-91
2022/03/04 12:31:06;;;;;;;16.17;10.75;;;15.10;95.40;;;;;;5050121;28;20071;-89
2022/03/04 12:33:38;;;;;;;16.00;10.32;;;15.40;93.00;;;;;;5033189;28;20420;-89
2022/03/04 12:36:06;;;;;;;15.75;10.50;;;14.90;93.60;;;;;;5032912;28;20041;-88
2022/03/04 12:38:50;;;;;;;14.35;9.70;;;14.50;94.20;;;;;;5050113;28;20514;-88